College Ward, Utah
Current Conditions -  °F | °C
As of 12:15 AM on Sunday 26 Oct 2014 (Local Time) from KBMC Reporting Station
Clear Clear  
Wind Chill: 65°   Ceiling: Unl
Heat Index: 65°   Visibility: 10mi
Dew Point: 37°   Wind: 15mph
Humidity: 35%   Direction: 180°S
Pressure: 29.89"   Gusts: NA
Location:  41.645°N, 111.959°W
Report Text: KBMC 260615Z AUTO 18013KT 10SM CLR 19/03 A2989 RMK AO1 T01850029
Loading
Personal Weather Stations






























Interactive Weather Map
Tropical Storm Tracking
New forecast layout! Learn more

10-Day Weather Forecast

Advertisements
Track Severe Weather on mobile